Diablo, Washington
Current Conditions -  °F | °C
As of 9:55 AM on Saturday 20 Dec 2014 (Local Time) from KAWO Reporting Station
Overcast Overcast  
Wind Chill: 44°   Ceiling: 3500
Heat Index: 46°   Visibility: 10mi
Dew Point: 39°   Wind: 5mph
Humidity: 76%   Direction: 200°SSW
Pressure: 29.65"   Gusts: NA
Location:  48.571°N, 121.561°W
Report Text: KAWO 201755Z AUTO 20004KT 10SM BKN035 OVC041 08/04 A2965 RMK AO1 60001 10080 20060 57007
Loading
Personal Weather Stations






























Interactive Weather Map New forecast layout! Learn more

10-Day Weather Forecast

Advertisements
Track Severe Weather on mobile